Time;durP1;ratioP1;P1;durP2;ratioP2;P2;SDS_P1;SDS_P2;PMS_P1;PMS_P2;Temp;Humidity;BMP_temperature;BMP_pressure;BME280_temperature;BME280_humidity;BME280_pressure;Samples;Min_cycle;Max_cycle;Signal;HPM_P1;HPM_P2
2022/04/21 00:01:34;;;;;;;15.00;7.20;;;;;6.40;97138.60;;;;110827;1249;42299;-60
2022/04/21 00:04:04;;;;;;;17.80;7.90;;;;;6.40;97142.60;;;;110602;1251;42129;-59
2022/04/21 00:06:33;;;;;;;14.20;6.40;;;;;6.40;97139.80;;;;110682;1251;41537;-60
2022/04/21 00:09:03;;;;;;;17.20;6.90;;;;;6.40;97141.80;;;;110683;1251;41820;-60
2022/04/21 00:11:32;;;;;;;13.90;6.50;;;;;6.40;97148.20;;;;110670;1250;41476;-60
2022/04/21 00:14:02;;;;;;;13.20;6.00;;;;;6.36;97146.00;;;;110650;1251;41483;-59
2022/04/21 00:16:31;;;;;;;19.50;6.60;;;;;6.30;97142.80;;;;110533;1252;41265;-60
2022/04/21 00:19:01;;;;;;;13.50;6.30;;;;;6.20;97141.00;;;;110788;1249;41572;-60
2022/04/21 00:23:26;;;;;;;15.00;6.30;;;;;6.18;97146.80;;;;110815;1249;41253;-60
2022/04/21 00:24:20;;;;;;;14.10;6.00;;;;;6.06;97148.20;;;;110798;1251;41852;-60
2022/04/21 00:26:50;;;;;;;13.90;5.40;;;;;5.92;97151.60;;;;110825;1250;41149;-60
2022/04/21 00:29:23;;;;;;;11.60;5.30;;;;;5.88;97154.80;;;;110736;1250;41723;-60
2022/04/21 00:31:54;;;;;;;12.40;5.40;;;;;5.80;97151.80;;;;110691;1251;41202;-60
2022/04/21 00:34:23;;;;;;;12.40;5.60;;;;;5.80;97155.60;;;;110771;1249;41358;-60
2022/04/21 00:36:54;;;;;;;12.70;6.10;;;;;5.70;97151.60;;;;110669;1251;41157;-60
2022/04/21 00:39:23;;;;;;;11.00;4.70;;;;;5.70;97151.40;;;;110636;1250;41940;-60
2022/04/21 00:41:58;;;;;;;12.00;5.40;;;;;5.70;97157.00;;;;110767;1249;42278;-60
2022/04/21 00:44:28;;;;;;;14.50;6.20;;;;;5.60;97151.20;;;;110932;1249;41828;-60
2022/04/21 00:47:00;;;;;;;14.50;6.50;;;;;5.60;97149.80;;;;110597;1252;41392;-60
2022/04/21 00:49:31;;;;;;;15.60;6.50;;;;;5.56;97157.40;;;;110612;1251;41612;-59
2022/04/21 00:52:00;;;;;;;;;;;;;5.50;97155.00;;;;110686;1251;41190;-60
2022/04/21 00:54:33;;;;;;;14.20;6.50;;;;;5.50;97157.40;;;;110809;1250;41198;-59
2022/04/21 00:57:05;;;;;;;12.40;5.70;;;;;5.40;97165.60;;;;110747;1251;43826;-60
2022/04/21 00:59:34;;;;;;;;;;;;;5.40;97162.60;;;;110856;1251;41169;-60
2022/04/21 01:04:53;;;;;;;12.20;5.90;;;;;5.20;97166.00;;;;110561;1252;42360;-60
2022/04/21 01:07:23;;;;;;;12.90;5.60;;;;;5.12;97162.40;;;;110610;1251;41302;-60
2022/04/21 01:09:56;;;;;;;17.80;6.20;;;;;5.10;97164.80;;;;110813;1249;41211;-61
2022/04/21 01:12:27;;;;;;;11.70;5.60;;;;;5.10;97166.80;;;;110641;1251;41687;-60
2022/04/21 01:14:57;;;;;;;14.40;5.80;;;;;5.10;97167.40;;;;110633;1251;41272;-59
2022/04/21 01:17:36;;;;;;;12.30;5.40;;;;;5.12;97166.80;;;;110743;1249;41510;-60
2022/04/21 01:20:07;;;;;;;11.80;5.30;;;;;5.10;97162.60;;;;110773;1250;41180;-59
2022/04/21 01:22:36;;;;;;;12.50;6.00;;;;;5.02;97161.80;;;;110685;1251;41176;-60
2022/04/21 01:25:06;;;;;;;12.80;5.60;;;;;5.00;97157.60;;;;110836;1250;41149;-59
2022/04/21 01:27:38;;;;;;;10.80;4.90;;;;;4.98;97159.60;;;;110775;1250;41904;-60
2022/04/21 01:30:10;;;;;;;12.70;5.50;;;;;4.90;97169.00;;;;110619;1251;41415;-60
2022/04/21 01:32:43;;;;;;;10.70;5.00;;;;;4.90;97169.60;;;;110832;1250;41174;-59
2022/04/21 01:35:13;;;;;;;12.10;5.10;;;;;4.90;97173.00;;;;110815;1251;41965;-60
2022/04/21 01:43:20;;;;;;;11.60;4.90;;;;;4.72;97175.80;;;;110599;1253;41152;-60
2022/04/21 01:45:50;;;;;;;11.00;4.60;;;;;4.70;97173.40;;;;110651;1251;42386;-60
2022/04/21 01:48:20;;;;;;;13.40;4.80;;;;;4.70;97175.00;;;;110653;1252;41354;-60
2022/04/21 01:50:51;;;;;;;11.00;5.10;;;;;4.60;97171.40;;;;110642;1251;41184;-60
2022/04/21 01:53:22;;;;;;;12.90;5.50;;;;;4.60;97172.20;;;;110771;1250;41262;-60
2022/04/21 01:55:54;;;;;;;14.50;5.90;;;;;4.50;97171.40;;;;110836;1250;41181;-60
2022/04/21 01:58:25;;;;;;;;;;;;;4.50;97175.20;;;;110866;1250;40818;-60
2022/04/21 02:00:56;;;;;;;11.90;5.30;;;;;4.40;97182.40;;;;110719;1250;42454;-60
2022/04/21 02:03:27;;;;;;;13.50;5.40;;;;;4.40;97179.00;;;;110657;1251;42583;-60
2022/04/21 02:05:59;;;;;;;12.00;5.50;;;;;4.30;97177.80;;;;110754;1250;41126;-60
2022/04/21 02:08:29;;;;;;;11.50;5.30;;;;;4.30;97180.60;;;;110752;1250;41255;-59
2022/04/21 02:10:59;;;;;;;13.80;5.50;;;;;4.20;97179.60;;;;110626;1251;41165;-61
2022/04/21 02:13:29;;;;;;;12.60;5.00;;;;;4.16;97180.60;;;;110839;1249;41145;-59
2022/04/21 02:16:00;;;;;;;11.90;5.50;;;;;4.10;97178.00;;;;110800;1251;41259;-60
2022/04/21 02:18:30;;;;;;;10.50;5.10;;;;;4.10;97182.60;;;;110798;1250;41249;-60
2022/04/21 02:21:00;;;;;;;10.60;5.10;;;;;4.10;97178.40;;;;110885;1250;41159;-60
2022/04/21 02:23:30;;;;;;;11.70;4.80;;;;;4.00;97183.00;;;;110689;1251;41161;-61
2022/04/21 02:26:01;;;;;;;11.10;5.40;;;;;4.00;97179.60;;;;110580;1253;41134;-61
2022/04/21 02:28:30;;;;;;;10.80;5.30;;;;;4.00;97182.40;;;;110581;1252;42085;-61
2022/04/21 02:31:01;;;;;;;11.60;5.60;;;;;4.00;97183.80;;;;110808;1249;41263;-61
2022/04/21 02:33:31;;;;;;;11.60;5.70;;;;;3.96;97181.40;;;;110792;1251;41161;-61
2022/04/21 02:36:01;;;;;;;13.00;6.10;;;;;3.90;97180.40;;;;110750;1251;41370;-60
2022/04/21 02:38:31;;;;;;;11.70;5.30;;;;;3.90;97179.80;;;;110791;1250;41387;-59
2022/04/21 02:41:01;;;;;;;11.20;5.40;;;;;3.90;97179.60;;;;110744;1251;42204;-59
2022/04/21 02:43:31;;;;;;;10.40;5.00;;;;;3.82;97178.80;;;;110727;1250;41259;-59
2022/04/21 02:46:02;;;;;;;11.00;4.90;;;;;3.80;97187.40;;;;110816;1250;41136;-59
2022/04/21 02:48:31;;;;;;;11.10;5.20;;;;;3.80;97185.80;;;;110552;1252;41982;-60
2022/04/21 02:51:01;;;;;;;11.80;5.50;;;;;3.80;97191.80;;;;110652;1251;41376;-60
2022/04/21 02:59:09;;;;;;;12.70;5.40;;;;;3.70;97188.60;;;;110669;1251;41960;-59
2022/04/21 03:01:39;;;;;;;12.40;5.80;;;;;3.70;97191.60;;;;110579;1252;41362;-59
2022/04/21 03:04:10;;;;;;;10.60;5.20;;;;;3.60;97192.60;;;;110803;1251;41134;-60
2022/04/21 03:06:39;;;;;;;11.30;5.00;;;;;3.60;97191.60;;;;110827;1250;41163;-60
2022/04/21 03:09:09;;;;;;;12.60;5.70;;;;;3.60;97192.20;;;;110703;1250;41616;-60
2022/04/21 03:11:39;;;;;;;12.00;5.50;;;;;3.60;97192.60;;;;110676;1251;41259;-60
2022/04/21 03:14:09;;;;;;;11.00;5.60;;;;;3.60;97191.80;;;;110701;1251;41187;-60
2022/04/21 03:16:38;;;;;;;11.10;5.40;;;;;3.60;97182.80;;;;110711;1251;41156;-59
2022/04/21 03:19:08;;;;;;;13.90;6.50;;;;;3.60;97186.80;;;;110711;1251;41269;-60
2022/04/21 03:24:29;;;;;;;11.80;5.70;;;;;3.62;97191.60;;;;110566;1251;41590;-59
2022/04/21 03:26:59;;;;;;;11.90;5.70;;;;;3.60;97192.00;;;;110741;1250;42573;-60
2022/04/21 03:29:29;;;;;;;12.70;6.10;;;;;3.62;97191.60;;;;110739;1252;41407;-60
2022/04/21 03:31:59;;;;;;;11.10;5.20;;;;;3.68;97191.00;;;;110720;1251;41269;-60
2022/04/21 03:34:31;;;;;;;11.20;5.60;;;;;3.70;97189.40;;;;110812;1250;41505;-60
2022/04/21 03:37:00;;;;;;;14.00;6.50;;;;;3.70;97187.60;;;;110706;1250;41817;-60
2022/04/21 03:39:30;;;;;;;13.10;6.10;;;;;3.80;97181.40;;;;110603;1252;41271;-59
2022/04/21 03:42:01;;;;;;;11.00;5.30;;;;;3.88;97182.60;;;;110823;1251;41150;-60
2022/04/21 03:44:32;;;;;;;11.20;5.30;;;;;3.90;97181.00;;;;110715;1250;41382;-60
2022/04/21 03:47:01;;;;;;;12.00;5.00;;;;;3.92;97178.40;;;;110739;1251;41274;-60
2022/04/21 03:49:31;;;;;;;13.30;5.70;;;;;4.00;97173.40;;;;110732;1250;42277;-60
2022/04/21 03:52:01;;;;;;;11.70;5.60;;;;;4.00;97181.20;;;;110790;1251;41361;-61
2022/04/21 03:54:31;;;;;;;11.10;5.70;;;;;4.00;97182.00;;;;110735;1249;41178;-60
2022/04/21 03:57:00;;;;;;;12.60;6.30;;;;;4.00;97182.00;;;;110751;1251;41595;-60
2022/04/21 03:59:30;;;;;;;11.90;5.30;;;;;4.02;97179.20;;;;110755;1251;42385;-60
2022/04/21 04:02:03;;;;;;;10.50;5.00;;;;;4.10;97172.40;;;;110688;1252;41483;-61
2022/04/21 04:04:34;;;;;;;11.20;5.50;;;;;4.10;97175.60;;;;110827;1251;42374;-60
2022/04/21 04:12:41;;;;;;;11.70;5.50;;;;;4.10;97172.40;;;;110616;1252;41619;-60
2022/04/21 04:15:10;;;;;;;13.60;5.70;;;;;4.14;97173.20;;;;110821;1250;41146;-59
2022/04/21 04:17:40;;;;;;;14.60;7.20;;;;;4.20;97169.60;;;;110677;1250;41150;-59
2022/04/21 04:20:10;;;;;;;13.60;7.10;;;;;4.20;97167.60;;;;110709;1252;41156;-60
2022/04/21 04:22:40;;;;;;;16.50;7.20;;;;;4.18;97169.20;;;;110526;1253;41808;-60
2022/04/21 04:25:10;;;;;;;12.00;6.10;;;;;4.20;97171.40;;;;110593;1252;41148;-61
2022/04/21 04:27:39;;;;;;;15.40;6.70;;;;;4.20;97167.60;;;;110531;1252;41159;-61
2022/04/21 04:30:09;;;;;;;12.90;6.20;;;;;4.26;97170.20;;;;110689;1252;41364;-60
2022/04/21 04:32:38;;;;;;;13.00;6.30;;;;;4.30;97170.20;;;;110614;1251;41277;-61
2022/04/21 04:35:08;;;;;;;10.70;5.40;;;;;4.30;97176.40;;;;110662;1251;41708;-60
2022/04/21 04:37:38;;;;;;;11.60;5.40;;;;;4.40;97176.80;;;;110518;1252;41613;-59
2022/04/21 04:40:08;;;;;;;13.70;7.00;;;;;4.40;97172.00;;;;110717;1250;41260;-60
2022/04/21 04:42:38;;;;;;;13.90;6.70;;;;;4.50;97168.00;;;;110597;1251;41497;-60
2022/04/21 04:47:55;;;;;;;15.00;7.70;;;;;4.58;97166.00;;;;110537;1252;41235;-59
2022/04/21 04:50:24;;;;;;;14.00;6.80;;;;;4.60;97164.80;;;;110732;1251;41188;-59
2022/04/21 04:52:58;;;;;;;14.40;6.40;;;;;4.60;97165.60;;;;110713;1251;41149;-59
2022/04/21 04:55:30;;;;;;;13.80;6.50;;;;;4.64;97167.40;;;;110703;1251;41139;-60
2022/04/21 04:57:59;;;;;;;11.40;5.50;;;;;4.70;97176.00;;;;110645;1250;42096;-59
2022/04/21 05:00:29;;;;;;;11.60;6.00;;;;;4.80;97175.00;;;;110493;1251;41250;-59
2022/04/21 05:02:59;;;;;;;11.40;5.60;;;;;4.82;97164.80;;;;110725;1250;41152;-59
2022/04/21 05:05:31;;;;;;;10.90;5.50;;;;;4.90;97174.80;;;;110754;1251;41263;-59
2022/04/21 05:08:05;;;;;;;14.70;6.20;;;;;5.00;97173.20;;;;110862;1249;41355;-59
2022/04/21 05:10:35;;;;;;;13.70;6.80;;;;;5.10;97173.20;;;;110838;1250;42255;-60
2022/04/21 05:13:05;;;;;;;17.50;8.40;;;;;5.20;97167.80;;;;110760;1251;41630;-60
2022/04/21 05:15:35;;;;;;;19.60;8.60;;;;;5.30;97172.00;;;;110615;1252;41146;-60
2022/04/21 05:18:04;;;;;;;17.90;8.30;;;;;5.38;97161.00;;;;110564;1250;41381;-60
2022/04/21 05:20:34;;;;;;;17.30;8.10;;;;;5.46;97160.40;;;;110654;1250;41225;-59
2022/04/21 05:23:05;;;;;;;17.00;8.70;;;;;5.50;97155.40;;;;110474;1252;41149;-58
2022/04/21 05:25:36;;;;;;;20.40;10.70;;;;;5.60;97156.80;;;;110746;1251;41155;-58
2022/04/21 05:28:09;;;;;;;22.00;10.70;;;;;5.66;97159.80;;;;110529;1252;41838;-61
2022/04/21 05:30:58;;;;;;;19.30;10.10;;;;;5.70;97155.60;;;;110733;1251;41156;-60
2022/04/21 05:33:30;;;;;;;19.30;10.20;;;;;5.80;97150.80;;;;110468;1253;41165;-59
2022/04/21 05:35:59;;;;;;;;;;;;;5.90;97146.00;;;;110590;1252;41358;-59
2022/04/21 05:38:28;;;;;;;19.00;8.90;;;;;6.00;97151.00;;;;110561;1252;41618;-60
2022/04/21 05:40:59;;;;;;;16.80;9.00;;;;;6.10;97151.40;;;;110713;1250;41167;-60
2022/04/21 05:43:40;;;;;;;20.30;11.10;;;;;6.30;97151.60;;;;110719;1251;41163;-60
2022/04/21 05:46:10;;;;;;;17.30;9.00;;;;;6.42;97156.00;;;;110627;1252;41908;-60
2022/04/21 05:48:40;;;;;;;17.90;9.00;;;;;6.56;97152.20;;;;110643;1252;41722;-60
2022/04/21 05:51:11;;;;;;;14.60;7.90;;;;;6.70;97157.20;;;;110510;1253;41636;-60
2022/04/21 05:53:47;;;;;;;13.70;7.00;;;;;6.80;97154.20;;;;110752;1251;41833;-59
2022/04/21 05:56:17;;;;;;;12.90;6.70;;;;;6.90;97154.60;;;;110837;1250;41596;-59
2022/04/21 05:58:46;;;;;;;16.70;7.10;;;;;7.00;97153.20;;;;110834;1250;41608;-60
2022/04/21 06:01:16;;;;;;;12.20;6.90;;;;;7.08;97149.00;;;;110687;1250;41277;-60
2022/04/21 06:03:45;;;;;;;17.20;6.80;;;;;7.18;97150.20;;;;110619;1250;41168;-60
2022/04/21 06:06:14;;;;;;;11.70;6.60;;;;;7.36;97150.00;;;;110425;1252;41630;-60
2022/04/21 06:08:44;;;;;;;12.00;6.90;;;;;7.60;97147.00;;;;110605;1253;40754;-60
2022/04/21 06:11:14;;;;;;;15.30;7.70;;;;;7.90;97144.00;;;;110561;1252;41204;-60
2022/04/21 06:13:43;;;;;;;14.80;7.70;;;;;8.22;97141.60;;;;110630;1252;41187;-60
2022/04/21 06:16:12;;;;;;;15.50;8.50;;;;;8.58;97149.00;;;;110631;1250;43598;-60
2022/04/21 06:18:42;;;;;;;14.70;8.00;;;;;8.90;97148.80;;;;110764;1251;41949;-60
2022/04/21 06:21:11;;;;;;;14.00;8.20;;;;;9.14;97148.60;;;;110682;1250;41626;-61
2022/04/21 06:23:40;;;;;;;15.20;8.10;;;;;9.40;97153.40;;;;110536;1251;41398;-60
2022/04/21 06:26:10;;;;;;;15.60;7.80;;;;;9.50;97150.60;;;;110795;1251;41264;-60
2022/04/21 06:28:41;;;;;;;15.00;7.60;;;;;9.60;97149.80;;;;110091;1251;717910;-61
2022/04/21 06:31:11;;;;;;;13.00;6.90;;;;;9.74;97156.40;;;;110774;1250;41171;-59
2022/04/21 06:33:40;;;;;;;12.50;7.10;;;;;9.82;97152.20;;;;110669;1249;42431;-60
2022/04/21 06:36:09;;;;;;;15.50;8.50;;;;;9.90;97153.00;;;;110574;1252;41584;-60
2022/04/21 06:38:38;;;;;;;16.80;9.00;;;;;9.90;97155.80;;;;110752;1251;41153;-59
2022/04/21 06:41:08;;;;;;;16.10;8.80;;;;;9.98;97157.40;;;;110656;1251;41866;-60
2022/04/21 06:49:13;;;;;;;13.80;7.90;;;;;9.90;97159.80;;;;110777;1250;41287;-59
2022/04/21 06:51:44;;;;;;;14.60;8.90;;;;;10.00;97153.00;;;;110567;1252;42064;-60
2022/04/21 06:54:13;;;;;;;;;;;;;10.00;97160.60;;;;110641;1250;41257;-59
2022/04/21 06:56:48;;;;;;;17.10;10.20;;;;;10.00;97157.40;;;;110664;1252;41417;-60
2022/04/21 06:59:18;;;;;;;16.60;8.30;;;;;10.06;97162.80;;;;110726;1251;41159;-59
2022/04/21 07:01:47;;;;;;;14.60;8.70;;;;;10.06;97158.00;;;;110587;1253;41260;-60
2022/04/21 07:04:17;;;;;;;15.80;8.70;;;;;10.20;97160.60;;;;110764;1249;41811;-59
2022/04/21 07:06:47;;;;;;;19.00;9.30;;;;;10.30;97167.20;;;;110550;1249;41270;-59
2022/04/21 07:09:16;;;;;;;13.30;7.10;;;;;10.40;97162.00;;;;110773;1251;41791;-59
2022/04/21 07:11:46;;;;;;;13.30;7.90;;;;;10.60;97168.80;;;;110764;1252;41148;-60
2022/04/21 07:14:15;;;;;;;13.30;7.60;;;;;10.66;97174.20;;;;110726;1252;41186;-60
2022/04/21 07:16:44;;;;;;;12.50;7.40;;;;;10.80;97172.40;;;;110758;1251;41960;-60
2022/04/21 07:19:14;;;;;;;11.80;6.40;;;;;10.90;97170.40;;;;110582;1252;41710;-60
2022/04/21 07:21:43;;;;;;;15.80;9.40;;;;;11.10;97171.00;;;;110635;1250;41630;-60
2022/04/21 07:24:12;;;;;;;15.00;8.70;;;;;11.26;97171.40;;;;110726;1252;41610;-60
2022/04/21 07:26:42;;;;;;;15.70;9.30;;;;;11.30;97168.80;;;;110743;1251;42645;-60
2022/04/21 07:29:11;;;;;;;13.40;7.50;;;;;11.50;97168.60;;;;110659;1250;42690;-60
2022/04/21 07:31:42;;;;;;;14.90;7.30;;;;;11.70;97166.40;;;;110589;1252;41391;-59
2022/04/21 07:34:11;;;;;;;12.70;7.10;;;;;12.04;97160.60;;;;110704;1250;41157;-60
2022/04/21 07:36:42;;;;;;;14.30;7.50;;;;;12.40;97162.00;;;;110723;1250;41946;-59
2022/04/21 07:39:11;;;;;;;13.00;6.80;;;;;12.60;97157.60;;;;110794;1250;41880;-60
2022/04/21 07:41:41;;;;;;;12.60;6.20;;;;;12.80;97155.80;;;;110794;1249;41547;-59
2022/04/21 07:44:11;;;;;;;15.30;7.90;;;;;12.90;97154.20;;;;110720;1250;41882;-60
2022/04/21 07:46:40;;;;;;;11.70;6.90;;;;;12.90;97158.20;;;;110743;1250;41199;-59
2022/04/21 07:54:47;;;;;;;12.60;7.60;;;;;13.20;97146.20;;;;110409;1252;41747;-60
2022/04/21 07:57:16;;;;;;;14.00;8.60;;;;;13.28;97142.60;;;;110736;1250;41539;-60
2022/04/21 07:59:46;;;;;;;11.90;5.70;;;;;13.30;97139.40;;;;110598;1252;42002;-60
2022/04/21 08:02:16;;;;;;;12.10;6.60;;;;;13.46;97135.20;;;;110569;1252;41405;-61
2022/04/21 08:04:47;;;;;;;13.50;7.90;;;;;13.66;97138.80;;;;110577;1253;41198;-60
2022/04/21 08:07:17;;;;;;;14.30;8.40;;;;;13.70;97131.20;;;;110676;1252;41735;-60
2022/04/21 08:09:46;;;;;;;13.70;7.00;;;;;13.70;97132.60;;;;110641;1252;41308;-60
2022/04/21 08:12:15;;;;;;;13.70;7.60;;;;;13.80;97128.80;;;;110564;1253;41152;-60
2022/04/21 08:14:45;;;;;;;13.50;6.90;;;;;13.90;97127.40;;;;110527;1254;41190;-60
2022/04/21 08:17:14;;;;;;;12.20;7.10;;;;;13.90;97128.40;;;;110561;1251;41175;-60
2022/04/21 08:19:43;;;;;;;11.40;6.50;;;;;13.90;97124.80;;;;110646;1250;41718;-61
2022/04/21 08:22:13;;;;;;;13.90;7.50;;;;;14.00;97121.00;;;;110759;1252;41603;-60
2022/04/21 08:33:59;;;;;;;13.00;6.50;;;;;14.00;97123.60;;;;110700;1251;41277;-62
2022/04/21 08:36:28;;;;;;;14.80;8.60;;;;;14.30;97114.20;;;;110902;1251;41639;-58
2022/04/21 08:38:57;;;;;;;16.70;9.30;;;;;14.60;97110.40;;;;110771;1251;41151;-60
2022/04/21 08:41:30;;;;;;;15.60;9.00;;;;;14.86;97110.60;;;;110543;1253;41687;-60
2022/04/21 08:44:03;;;;;;;13.50;6.70;;;;;14.90;97119.20;;;;110606;1253;41259;-60
2022/04/21 08:46:32;;;;;;;15.10;8.20;;;;;14.92;97112.60;;;;110705;1250;41385;-60
2022/04/21 08:49:02;;;;;;;14.00;7.30;;;;;15.02;97117.60;;;;110685;1252;41616;-60
2022/04/21 08:51:33;;;;;;;12.70;6.60;;;;;15.30;97112.60;;;;110568;1252;41146;-60
2022/04/21 08:54:02;;;;;;;12.30;5.80;;;;;15.60;97109.40;;;;110576;1252;42040;-61
2022/04/21 08:56:32;;;;;;;15.10;7.80;;;;;16.00;97096.60;;;;110643;1250;41166;-60
2022/04/21 08:59:01;;;;;;;15.10;6.80;;;;;16.30;97091.40;;;;110745;1250;41158;-59
2022/04/21 09:01:30;;;;;;;12.50;6.40;;;;;16.40;97086.60;;;;110580;1252;41631;-60
2022/04/21 09:04:00;;;;;;;17.30;8.40;;;;;16.82;97089.40;;;;110675;1252;41172;-60
2022/04/21 09:06:29;;;;;;;14.00;7.70;;;;;16.80;97088.40;;;;110580;1252;41369;-58
2022/04/21 09:09:16;;;;;;;14.80;7.50;;;;;16.18;97086.80;;;;110549;1252;41980;-58
2022/04/21 09:11:45;;;;;;;12.80;7.20;;;;;15.64;97088.60;;;;110566;1252;41307;-61
2022/04/21 09:14:16;;;;;;;15.50;7.00;;;;;15.28;97094.20;;;;110628;1252;41421;-58
2022/04/21 09:16:46;;;;;;;14.80;6.50;;;;;14.70;97100.00;;;;110499;1253;41146;-58
2022/04/21 09:19:16;;;;;;;13.70;7.10;;;;;14.44;97099.40;;;;110604;1253;42497;-58
2022/04/21 09:21:45;;;;;;;12.20;7.10;;;;;14.30;97094.20;;;;110528;1253;42142;-59
2022/04/21 09:24:25;;;;;;;13.00;7.40;;;;;14.20;97096.60;;;;110607;1253;41166;-59
2022/04/21 09:26:57;;;;;;;14.30;8.20;;;;;14.10;97097.80;;;;110799;1251;41651;-58
2022/04/21 09:29:30;;;;;;;13.30;7.80;;;;;14.00;97100.60;;;;110687;1251;41146;-60
2022/04/21 09:32:02;;;;;;;15.00;7.10;;;;;13.82;97100.60;;;;110779;1249;41657;-59
2022/04/21 09:34:36;;;;;;;26.10;6.90;;;;;13.70;97106.40;;;;110703;1251;41477;-59
2022/04/21 09:37:07;;;;;;;13.00;7.00;;;;;13.60;97111.80;;;;110811;1250;41152;-59
2022/04/21 09:39:40;;;;;;;12.40;6.80;;;;;13.40;97111.80;;;;110723;1249;42051;-60
2022/04/21 09:42:09;;;;;;;11.90;6.60;;;;;13.30;97111.00;;;;110772;1251;41172;-60
2022/04/21 09:47:30;;;;;;;15.60;7.80;;;;;13.20;97111.20;;;;110865;1251;41148;-59
2022/04/21 09:50:13;;;;;;;12.90;7.40;;;;;13.10;97111.20;;;;110661;1252;41140;-60
2022/04/21 09:52:50;;;;;;;13.90;7.40;;;;;12.88;97107.00;;;;110665;1252;42066;-60
2022/04/21 09:55:27;;;;;;;13.40;7.30;;;;;12.78;97108.80;;;;110603;1252;41246;-59
2022/04/21 09:58:08;;;;;;;14.10;6.40;;;;;12.70;97104.40;;;;110579;1252;41776;-59
2022/04/21 10:00:38;;;;;;;12.20;6.30;;;;;12.60;97101.80;;;;110594;1252;41264;-59
2022/04/21 10:03:08;;;;;;;12.00;6.50;;;;;12.60;97102.60;;;;110524;1253;41166;-60
2022/04/21 10:05:39;;;;;;;14.20;6.90;;;;;12.60;97101.20;;;;110455;1254;41167;-60
2022/04/21 10:08:10;;;;;;;15.50;6.30;;;;;12.60;97100.00;;;;110530;1252;41260;-60
2022/04/21 10:10:46;;;;;;;16.20;7.30;;;;;12.60;97102.00;;;;110509;1252;41882;-60
2022/04/21 10:13:15;;;;;;;11.50;5.90;;;;;12.70;97101.40;;;;110562;1252;41162;-60
2022/04/21 10:15:45;;;;;;;10.20;5.50;;;;;12.68;97100.20;;;;110567;1251;41457;-59
2022/04/21 10:18:16;;;;;;;11.80;5.70;;;;;12.70;97100.20;;;;110525;1252;41952;-59
2022/04/21 10:20:46;;;;;;;11.30;5.70;;;;;12.74;97097.00;;;;110506;1253;41617;-60
2022/04/21 10:23:16;;;;;;;14.40;6.20;;;;;12.80;97099.40;;;;110532;1252;41145;-60
2022/04/21 10:25:58;;;;;;;10.80;4.80;;;;;12.90;97096.00;;;;110558;1252;42537;-60
2022/04/21 10:28:43;;;;;;;13.00;5.10;;;;;13.00;97094.80;;;;110587;1252;42133;-60
2022/04/21 10:31:34;;;;;;;11.70;5.90;;;;;13.10;97102.80;;;;110571;1252;41995;-60
2022/04/21 10:34:05;;;;;;;10.50;5.30;;;;;13.20;97099.00;;;;110604;1252;41281;-60
2022/04/21 10:36:47;;;;;;;12.40;6.00;;;;;13.20;97096.80;;;;110777;1252;41276;-61
2022/04/21 10:39:18;;;;;;;10.60;5.40;;;;;13.30;97097.60;;;;110735;1251;42070;-61
2022/04/21 10:42:17;;;;;;;13.30;5.70;;;;;13.38;97095.40;;;;110820;1251;41891;-61
2022/04/21 10:44:49;;;;;;;9.10;5.00;;;;;13.42;97095.60;;;;110666;1252;41621;-60
2022/04/21 10:47:33;;;;;;;10.40;4.90;;;;;13.50;97103.20;;;;110713;1250;41592;-60
2022/04/21 10:50:18;;;;;;;12.50;6.30;;;;;13.70;97100.80;;;;110622;1253;42403;-60
2022/04/21 10:58:33;;;;;;;11.00;5.40;;;;;14.10;97098.80;;;;110706;1252;41133;-60
2022/04/21 11:01:13;;;;;;;9.60;4.80;;;;;14.30;97096.60;;;;110655;1251;41624;-60
2022/04/21 11:03:45;;;;;;;9.80;4.80;;;;;14.56;97093.00;;;;110689;1252;41269;-60
2022/04/21 11:06:15;;;;;;;9.60;5.10;;;;;14.80;97096.40;;;;110574;1252;41153;-61
2022/04/21 11:08:44;;;;;;;13.80;6.60;;;;;15.10;97094.80;;;;110538;1253;41213;-60
2022/04/21 11:11:49;;;;;;;13.00;5.90;;;;;15.50;97091.20;;;;110536;1251;41608;-60
2022/04/21 11:14:34;;;;;;;11.40;5.20;;;;;15.98;97094.60;;;;110647;1252;41732;-60
2022/04/21 11:17:05;;;;;;;10.90;5.10;;;;;16.64;97090.60;;;;110573;1252;41770;-60
2022/04/21 11:19:53;;;;;;;12.30;6.00;;;;;17.66;97085.60;;;;110497;1253;41165;-61
2022/04/21 11:22:42;;;;;;;11.60;6.00;;;;;18.52;97071.80;;;;110574;1252;41159;-60
2022/04/21 11:25:12;;;;;;;10.10;4.80;;;;;19.72;97064.60;;;;110551;1252;41692;-61
2022/04/21 11:27:43;;;;;;;9.40;5.00;;;;;20.92;97050.80;;;;110665;1252;41941;-61
2022/04/21 11:30:14;;;;;;;8.70;4.10;;;;;22.20;97041.80;;;;110682;1252;41553;-61
2022/04/21 11:32:51;;;;;;;9.60;4.50;;;;;23.80;97042.20;;;;110670;1252;41516;-61
2022/04/21 11:35:22;;;;;;;8.90;4.10;;;;;23.80;97046.60;;;;110659;1251;41328;-60
2022/04/21 11:37:54;;;;;;;;;;;;;23.42;97041.40;;;;110587;1251;41893;-60
2022/04/21 11:40:37;;;;;;;10.40;5.40;;;;;22.94;97044.80;;;;110666;1251;41263;-60
2022/04/21 11:43:17;;;;;;;10.60;5.10;;;;;21.92;97036.60;;;;110504;1254;41218;-60
2022/04/21 11:46:00;;;;;;;9.80;5.60;;;;;21.06;97041.00;;;;110739;1251;41377;-59
2022/04/21 11:48:38;;;;;;;11.70;5.60;;;;;20.04;97042.20;;;;110725;1252;41265;-60
2022/04/21 11:51:10;;;;;;;12.00;5.60;;;;;19.26;97043.80;;;;110713;1252;41373;-60
2022/04/21 11:53:41;;;;;;;10.70;5.50;;;;;19.10;97047.40;;;;110662;1251;41748;-61
2022/04/21 11:56:12;;;;;;;12.60;6.00;;;;;18.70;97044.40;;;;110675;1251;41691;-61
2022/04/21 11:58:42;;;;;;;11.40;6.20;;;;;18.20;97042.40;;;;110706;1252;41347;-61
2022/04/21 12:06:58;;;;;;;;;;;;;17.20;97040.20;;;;110627;1251;41276;-59
2022/04/21 12:09:29;;;;;;;11.30;6.30;;;;;17.22;97034.00;;;;110683;1252;41718;-59
2022/04/21 12:12:00;;;;;;;11.10;6.00;;;;;17.42;97037.00;;;;110724;1251;41136;-59
2022/04/21 12:14:29;;;;;;;12.40;6.50;;;;;17.36;97039.80;;;;110776;1250;41150;-59
2022/04/21 12:17:00;;;;;;;11.50;5.50;;;;;17.18;97044.20;;;;110682;1252;41353;-59
2022/04/21 12:19:32;;;;;;;10.80;5.60;;;;;17.02;97043.40;;;;110689;1252;41609;-60
2022/04/21 12:22:18;;;;;;;10.70;5.10;;;;;17.36;97040.00;;;;110574;1253;41467;-60
2022/04/21 12:24:53;;;;;;;11.00;5.00;;;;;18.00;97034.20;;;;110639;1250;41592;-59
2022/04/21 12:27:29;;;;;;;12.10;6.70;;;;;18.56;97038.00;;;;110567;1252;42389;-59
2022/04/21 12:30:03;;;;;;;10.00;5.00;;;;;18.70;97040.00;;;;110579;1254;41315;-60
2022/04/21 12:32:40;;;;;;;9.80;4.30;;;;;18.70;97033.80;;;;110661;1251;41187;-59
2022/04/21 12:35:10;;;;;;;10.00;4.70;;;;;18.90;97026.20;;;;110559;1251;41639;-59
2022/04/21 12:37:41;;;;;;;9.00;4.10;;;;;19.00;97026.60;;;;110650;1250;41713;-60
2022/04/21 12:40:13;;;;;;;;;;;;;19.10;97027.60;;;;110591;1252;41154;-59
2022/04/21 12:42:47;;;;;;;11.90;5.30;;;;;19.10;97031.00;;;;110673;1252;42348;-60
2022/04/21 12:45:18;;;;;;;10.30;4.50;;;;;18.90;97023.60;;;;110611;1252;41266;-61
2022/04/21 12:47:49;;;;;;;8.70;4.20;;;;;18.80;97034.80;;;;110373;1252;41637;-61
2022/04/21 12:50:21;;;;;;;9.30;4.60;;;;;18.60;97018.80;;;;110623;1251;41278;-61
2022/04/21 12:52:56;;;;;;;8.60;4.00;;;;;18.44;97029.00;;;;110629;1253;42175;-60
2022/04/21 12:55:31;;;;;;;9.50;4.10;;;;;18.40;97035.20;;;;110517;1252;41261;-60
2022/04/21 12:58:11;;;;;;;8.10;3.50;;;;;18.40;97029.00;;;;110503;1252;41295;-59
2022/04/21 13:00:42;;;;;;;8.40;3.80;;;;;18.40;97027.80;;;;110626;1249;42400;-59
2022/04/21 13:03:14;;;;;;;8.00;3.50;;;;;18.30;97029.00;;;;110689;1251;42209;-59
2022/04/21 13:05:51;;;;;;;8.70;3.90;;;;;18.40;97028.40;;;;110627;1252;41277;-60
2022/04/21 13:08:22;;;;;;;9.50;3.50;;;;;18.40;97027.60;;;;110675;1251;42199;-59
2022/04/21 13:10:53;;;;;;;9.60;4.10;;;;;18.60;97024.20;;;;110614;1251;41158;-60
2022/04/21 13:13:23;;;;;;;9.20;4.60;;;;;18.70;97029.60;;;;110612;1252;42371;-59
2022/04/21 13:15:52;;;;;;;12.40;3.90;;;;;18.80;97021.80;;;;110559;1252;41147;-59
2022/04/21 13:18:22;;;;;;;9.00;3.30;;;;;18.96;97016.60;;;;110774;1252;41270;-59
2022/04/21 13:23:38;;;;;;;8.40;3.60;;;;;19.00;97013.80;;;;110541;1252;41657;-59
2022/04/21 13:26:07;;;;;;;8.70;3.80;;;;;19.10;97014.40;;;;110663;1251;41297;-60
2022/04/21 13:29:00;;;;;;;8.80;3.50;;;;;19.20;97016.00;;;;110511;1252;41398;-60
2022/04/21 13:34:17;;;;;;;7.80;3.90;;;;;19.30;97012.60;;;;110653;1252;41116;-60